sensor_id;sensor_type;location;lat;lon;timestamp;pressure;altitude;pressure_sealevel;temperature;humidity
39487;BME280;25173;50.430;18.926;2023-04-19T00:02:23;98471.13;;;12.88;67.66
39487;BME280;25173;50.430;18.926;2023-04-19T00:05:24;98462.09;;;12.87;67.61
39487;BME280;25173;50.430;18.926;2023-04-19T00:08:25;98468.91;;;12.90;67.32
39487;BME280;25173;50.430;18.926;2023-04-19T00:11:26;98466.72;;;12.92;67.24
39487;BME280;25173;50.430;18.926;2023-04-19T00:14:27;98461.50;;;12.95;67.00
39487;BME280;25173;50.430;18.926;2023-04-19T00:17:27;98460.09;;;12.98;66.80
39487;BME280;25173;50.430;18.926;2023-04-19T00:20:28;98460.09;;;12.98;66.85
39487;BME280;25173;50.430;18.926;2023-04-19T00:23:29;98461.19;;;13.02;66.70
39487;BME280;25173;50.430;18.926;2023-04-19T00:26:29;98450.81;;;13.04;66.36
39487;BME280;25173;50.430;18.926;2023-04-19T00:29:30;98450.50;;;13.05;66.22
39487;BME280;25173;50.430;18.926;2023-04-19T00:32:32;98442.00;;;13.07;66.22
39487;BME280;25173;50.430;18.926;2023-04-19T00:35:33;98445.03;;;13.05;66.08
39487;BME280;25173;50.430;18.926;2023-04-19T00:38:33;98443.94;;;13.06;66.01
39487;BME280;25173;50.430;18.926;2023-04-19T00:41:34;98434.09;;;13.05;65.84
39487;BME280;25173;50.430;18.926;2023-04-19T00:44:35;98420.94;;;13.07;65.78
39487;BME280;25173;50.430;18.926;2023-04-19T00:47:36;98416.00;;;13.14;65.54
39487;BME280;25173;50.430;18.926;2023-04-19T00:50:37;98429.34;;;13.26;65.29
39487;BME280;25173;50.430;18.926;2023-04-19T00:53:39;98418.31;;;13.36;65.13
39487;BME280;25173;50.430;18.926;2023-04-19T00:56:40;98407.63;;;13.40;64.85
39487;BME280;25173;50.430;18.926;2023-04-19T00:59:41;98411.13;;;13.45;64.61
39487;BME280;25173;50.430;18.926;2023-04-19T01:02:41;98406.41;;;13.51;64.50
39487;BME280;25173;50.430;18.926;2023-04-19T01:05:42;98403.41;;;13.52;64.29
39487;BME280;25173;50.430;18.926;2023-04-19T01:08:47;98399.84;;;13.52;64.22
39487;BME280;25173;50.430;18.926;2023-04-19T01:11:49;98396.88;;;13.48;64.23
39487;BME280;25173;50.430;18.926;2023-04-19T01:14:50;98398.53;;;13.44;64.15
39487;BME280;25173;50.430;18.926;2023-04-19T01:17:51;98396.34;;;13.46;64.28
39487;BME280;25173;50.430;18.926;2023-04-19T01:20:52;98389.25;;;13.45;64.13
39487;BME280;25173;50.430;18.926;2023-04-19T01:23:52;98384.88;;;13.44;64.11
39487;BME280;25173;50.430;18.926;2023-04-19T01:26:53;98374.47;;;13.46;64.12
39487;BME280;25173;50.430;18.926;2023-04-19T01:29:54;98376.09;;;13.47;63.97
39487;BME280;25173;50.430;18.926;2023-04-19T01:32:54;98371.44;;;13.48;63.76
39487;BME280;25173;50.430;18.926;2023-04-19T01:35:55;98374.47;;;13.46;63.79
39487;BME280;25173;50.430;18.926;2023-04-19T01:38:56;98367.34;;;13.45;63.63
39487;BME280;25173;50.430;18.926;2023-04-19T01:41:56;98374.22;;;13.43;63.66
39487;BME280;25173;50.430;18.926;2023-04-19T01:44:57;98366.81;;;13.43;63.80
39487;BME280;25173;50.430;18.926;2023-04-19T01:47:57;98366.28;;;13.41;63.64
39487;BME280;25173;50.430;18.926;2023-04-19T01:50:58;98358.13;;;13.36;63.74
39487;BME280;25173;50.430;18.926;2023-04-19T01:53:59;98354.28;;;13.37;63.73
39487;BME280;25173;50.430;18.926;2023-04-19T01:57:00;98357.31;;;13.36;63.80
39487;BME280;25173;50.430;18.926;2023-04-19T02:00:02;98354.84;;;13.34;63.71
39487;BME280;25173;50.430;18.926;2023-04-19T02:03:03;98360.38;;;13.29;63.87
39487;BME280;25173;50.430;18.926;2023-04-19T02:06:04;98361.31;;;13.14;64.13
39487;BME280;25173;50.430;18.926;2023-04-19T02:09:05;98358.88;;;13.08;64.39
39487;BME280;25173;50.430;18.926;2023-04-19T02:12:05;98349.91;;;13.02;64.56
39487;BME280;25173;50.430;18.926;2023-04-19T02:15:06;98358.13;;;13.02;64.60
39487;BME280;25173;50.430;18.926;2023-04-19T02:18:10;98353.16;;;13.04;64.72
39487;BME280;25173;50.430;18.926;2023-04-19T02:21:11;98351.56;;;12.98;64.83
39487;BME280;25173;50.430;18.926;2023-04-19T02:24:11;98360.63;;;12.94;65.14
39487;BME280;25173;50.430;18.926;2023-04-19T02:27:12;98356.31;;;12.82;65.58
39487;BME280;25173;50.430;18.926;2023-04-19T02:30:13;98351.16;;;12.81;65.71
39487;BME280;25173;50.430;18.926;2023-04-19T02:33:14;98343.25;;;12.79;65.84
39487;BME280;25173;50.430;18.926;2023-04-19T02:36:15;98337.78;;;12.79;66.03
39487;BME280;25173;50.430;18.926;2023-04-19T02:39:15;98342.16;;;12.80;65.87
39487;BME280;25173;50.430;18.926;2023-04-19T02:42:16;98337.84;;;12.69;66.11
39487;BME280;25173;50.430;18.926;2023-04-19T02:45:17;98334.09;;;12.55;66.44
39487;BME280;25173;50.430;18.926;2023-04-19T02:48:17;98336.88;;;12.45;66.89
39487;BME280;25173;50.430;18.926;2023-04-19T02:51:18;98342.41;;;12.35;67.13
39487;BME280;25173;50.430;18.926;2023-04-19T02:54:19;98330.75;;;12.19;67.50
39487;BME280;25173;50.430;18.926;2023-04-19T02:57:20;98317.66;;;12.16;67.52
39487;BME280;25173;50.430;18.926;2023-04-19T03:00:22;98314.63;;;12.18;67.69
39487;BME280;25173;50.430;18.926;2023-04-19T03:03:35;98315.72;;;12.22;67.52
39487;BME280;25173;50.430;18.926;2023-04-19T03:06:36;98312.41;;;12.25;67.70
39487;BME280;25173;50.430;18.926;2023-04-19T03:09:37;98310.22;;;12.27;67.59
39487;BME280;25173;50.430;18.926;2023-04-19T03:12:38;98299.31;;;12.27;67.48
39487;BME280;25173;50.430;18.926;2023-04-19T03:15:38;98298.81;;;12.20;67.70
39487;BME280;25173;50.430;18.926;2023-04-19T03:18:39;98291.16;;;12.17;67.67
39487;BME280;25173;50.430;18.926;2023-04-19T03:21:41;98288.75;;;12.10;68.04
39487;BME280;25173;50.430;18.926;2023-04-19T03:24:42;98289.00;;;12.09;68.31
39487;BME280;25173;50.430;18.926;2023-04-19T03:27:55;98283.28;;;12.15;68.14
39487;BME280;25173;50.430;18.926;2023-04-19T03:31:13;98285.41;;;12.18;68.01
39487;BME280;25173;50.430;18.926;2023-04-19T03:34:14;98273.97;;;12.16;68.12
39487;BME280;25173;50.430;18.926;2023-04-19T03:37:18;98260.88;;;12.13;68.10
39487;BME280;25173;50.430;18.926;2023-04-19T03:40:19;98251.88;;;12.13;67.97
39487;BME280;25173;50.430;18.926;2023-04-19T03:43:20;98248.56;;;12.16;67.96
39487;BME280;25173;50.430;18.926;2023-04-19T03:46:22;98246.88;;;12.25;67.87
39487;BME280;25173;50.430;18.926;2023-04-19T03:49:27;98237.56;;;12.31;67.59
39487;BME280;25173;50.430;18.926;2023-04-19T03:52:46;98247.66;;;12.35;67.56
39487;BME280;25173;50.430;18.926;2023-04-19T03:55:47;98242.47;;;12.34;67.41
39487;BME280;25173;50.430;18.926;2023-04-19T03:58:51;98244.66;;;12.32;67.37
39487;BME280;25173;50.430;18.926;2023-04-19T04:01:52;98247.16;;;12.23;67.24
39487;BME280;25173;50.430;18.926;2023-04-19T04:04:53;98242.59;;;12.14;67.41
39487;BME280;25173;50.430;18.926;2023-04-19T04:07:56;98247.00;;;12.04;67.55
39487;BME280;25173;50.430;18.926;2023-04-19T04:10:58;98253.59;;;11.98;67.61
39487;BME280;25173;50.430;18.926;2023-04-19T04:13:59;98257.16;;;11.99;67.76
39487;BME280;25173;50.430;18.926;2023-04-19T04:17:02;98256.31;;;11.98;67.97
39487;BME280;25173;50.430;18.926;2023-04-19T04:20:03;98248.97;;;11.94;68.25
39487;BME280;25173;50.430;18.926;2023-04-19T04:23:05;98245.41;;;11.93;68.54
39487;BME280;25173;50.430;18.926;2023-04-19T04:26:07;98233.41;;;11.99;68.70
39487;BME280;25173;50.430;18.926;2023-04-19T04:29:28;98237.72;;;12.00;68.62
39487;BME280;25173;50.430;18.926;2023-04-19T04:32:33;98236.94;;;12.00;68.71
39487;BME280;25173;50.430;18.926;2023-04-19T04:35:38;98237.50;;;11.97;68.80
39487;BME280;25173;50.430;18.926;2023-04-19T04:38:44;98234.72;;;12.02;68.87
39487;BME280;25173;50.430;18.926;2023-04-19T04:41:47;98232.00;;;12.02;68.92
39487;BME280;25173;50.430;18.926;2023-04-19T04:44:48;98227.94;;;11.99;69.00
39487;BME280;25173;50.430;18.926;2023-04-19T04:47:50;98226.53;;;12.02;68.98
39487;BME280;25173;50.430;18.926;2023-04-19T04:50:51;98233.31;;;12.10;69.08
39487;BME280;25173;50.430;18.926;2023-04-19T04:53:53;98229.50;;;12.11;68.95
39487;BME280;25173;50.430;18.926;2023-04-19T04:56:53;98228.94;;;12.09;68.88
39487;BME280;25173;50.430;18.926;2023-04-19T04:59:55;98231.41;;;12.10;68.97
39487;BME280;25173;50.430;18.926;2023-04-19T05:02:58;98224.81;;;12.21;68.79
39487;BME280;25173;50.430;18.926;2023-04-19T05:06:00;98226.41;;;12.27;68.52
39487;BME280;25173;50.430;18.926;2023-04-19T05:09:00;98239.66;;;12.44;68.47
39487;BME280;25173;50.430;18.926;2023-04-19T05:12:06;98233.75;;;12.66;68.09
39487;BME280;25173;50.430;18.926;2023-04-19T05:15:08;98238.63;;;12.69;67.34
39487;BME280;25173;50.430;18.926;2023-04-19T05:18:10;98240.03;;;12.66;67.08
39487;BME280;25173;50.430;18.926;2023-04-19T05:21:12;98247.56;;;12.45;66.61
39487;BME280;25173;50.430;18.926;2023-04-19T05:24:14;98245.56;;;12.22;66.32
39487;BME280;25173;50.430;18.926;2023-04-19T05:27:15;98240.50;;;11.95;66.20
39487;BME280;25173;50.430;18.926;2023-04-19T05:30:16;98252.84;;;11.83;66.22
39487;BME280;25173;50.430;18.926;2023-04-19T05:33:19;98259.41;;;11.72;66.10
39487;BME280;25173;50.430;18.926;2023-04-19T05:36:20;98256.16;;;11.64;66.45
39487;BME280;25173;50.430;18.926;2023-04-19T05:39:21;98254.53;;;11.63;66.39
39487;BME280;25173;50.430;18.926;2023-04-19T05:42:21;98250.16;;;11.67;66.52
39487;BME280;25173;50.430;18.926;2023-04-19T05:45:23;98247.44;;;11.67;66.62
39487;BME280;25173;50.430;18.926;2023-04-19T05:48:23;98249.34;;;11.67;66.59
39487;BME280;25173;50.430;18.926;2023-04-19T05:51:34;98261.38;;;11.61;66.34
39487;BME280;25173;50.430;18.926;2023-04-19T05:54:45;98251.88;;;11.48;65.91
39487;BME280;25173;50.430;18.926;2023-04-19T05:57:46;98263.88;;;11.42;66.15
39487;BME280;25173;50.430;18.926;2023-04-19T06:00:47;98262.00;;;11.27;66.14
39487;BME280;25173;50.430;18.926;2023-04-19T06:03:52;98259.00;;;11.24;66.35
39487;BME280;25173;50.430;18.926;2023-04-19T06:06:53;98260.94;;;11.13;65.91
39487;BME280;25173;50.430;18.926;2023-04-19T06:09:54;98256.56;;;11.12;66.20
39487;BME280;25173;50.430;18.926;2023-04-19T06:12:54;98251.13;;;11.12;66.35
39487;BME280;25173;50.430;18.926;2023-04-19T06:15:55;98258.22;;;11.18;66.31
39487;BME280;25173;50.430;18.926;2023-04-19T06:18:56;98243.50;;;11.09;66.22
39487;BME280;25173;50.430;18.926;2023-04-19T06:21:56;98241.88;;;11.08;66.25
39487;BME280;25173;50.430;18.926;2023-04-19T06:24:57;98248.41;;;11.17;66.50
39487;BME280;25173;50.430;18.926;2023-04-19T06:27:58;98244.28;;;11.20;66.55
39487;BME280;25173;50.430;18.926;2023-04-19T06:30:58;98250.53;;;11.31;66.38
39487;BME280;25173;50.430;18.926;2023-04-19T06:33:59;98251.59;;;11.35;66.02
39487;BME280;25173;50.430;18.926;2023-04-19T06:37:00;98255.41;;;11.44;66.03
39487;BME280;25173;50.430;18.926;2023-04-19T06:40:01;98258.63;;;11.61;65.53
39487;BME280;25173;50.430;18.926;2023-04-19T06:43:02;98249.59;;;11.76;65.56
39487;BME280;25173;50.430;18.926;2023-04-19T06:46:02;98256.06;;;11.95;65.26
39487;BME280;25173;50.430;18.926;2023-04-19T06:49:06;98248.09;;;12.03;65.10
39487;BME280;25173;50.430;18.926;2023-04-19T06:52:07;98255.38;;;12.18;65.03
39487;BME280;25173;50.430;18.926;2023-04-19T06:55:08;98252.34;;;12.25;64.72
39487;BME280;25173;50.430;18.926;2023-04-19T06:58:08;98259.91;;;12.38;64.56
39487;BME280;25173;50.430;18.926;2023-04-19T07:01:10;98258.19;;;12.52;64.61
39487;BME280;25173;50.430;18.926;2023-04-19T07:04:12;98256.88;;;12.78;64.37
39487;BME280;25173;50.430;18.926;2023-04-19T07:07:13;98258.09;;;12.96;63.91
39487;BME280;25173;50.430;18.926;2023-04-19T07:10:13;98262.09;;;13.09;63.70
39487;BME280;25173;50.430;18.926;2023-04-19T07:13:19;98264.91;;;13.33;63.48
39487;BME280;25173;50.430;18.926;2023-04-19T07:16:19;98257.16;;;13.40;63.17
39487;BME280;25173;50.430;18.926;2023-04-19T07:19:20;98261.19;;;13.47;62.89
39487;BME280;25173;50.430;18.926;2023-04-19T07:22:22;98253.44;;;13.54;62.64
39487;BME280;25173;50.430;18.926;2023-04-19T07:25:22;98254.53;;;13.77;62.78
39487;BME280;25173;50.430;18.926;2023-04-19T07:28:23;98248.16;;;14.06;62.23
39487;BME280;25173;50.430;18.926;2023-04-19T07:31:24;98258.66;;;14.17;61.30
39487;BME280;25173;50.430;18.926;2023-04-19T07:34:25;98260.81;;;14.20;61.40
39487;BME280;25173;50.430;18.926;2023-04-19T07:37:25;98255.34;;;14.39;61.36
39487;BME280;25173;50.430;18.926;2023-04-19T07:40:26;98264.69;;;14.57;61.10
39487;BME280;25173;50.430;18.926;2023-04-19T07:43:28;98260.25;;;14.61;60.44
39487;BME280;25173;50.430;18.926;2023-04-19T07:46:29;98267.53;;;14.52;60.50
39487;BME280;25173;50.430;18.926;2023-04-19T07:49:30;98273.00;;;14.52;60.58
39487;BME280;25173;50.430;18.926;2023-04-19T07:52:33;98268.25;;;14.57;60.58
39487;BME280;25173;50.430;18.926;2023-04-19T07:55:34;98265.66;;;14.66;60.42
39487;BME280;25173;50.430;18.926;2023-04-19T07:58:35;98264.75;;;14.70;60.08
39487;BME280;25173;50.430;18.926;2023-04-19T08:01:36;98261.91;;;14.43;59.32
39487;BME280;25173;50.430;18.926;2023-04-19T08:04:37;98268.72;;;14.03;59.87
39487;BME280;25173;50.430;18.926;2023-04-19T08:07:38;98273.56;;;13.87;60.72
39487;BME280;25173;50.430;18.926;2023-04-19T08:10:39;98271.53;;;13.74;60.46
39487;BME280;25173;50.430;18.926;2023-04-19T08:13:40;98270.19;;;13.48;60.90
39487;BME280;25173;50.430;18.926;2023-04-19T08:16:41;98262.75;;;12.62;62.28
39487;BME280;25173;50.430;18.926;2023-04-19T08:19:42;98267.25;;;11.93;63.82
39487;BME280;25173;50.430;18.926;2023-04-19T08:22:42;98267.97;;;11.45;65.34
39487;BME280;25173;50.430;18.926;2023-04-19T08:25:43;98263.38;;;11.05;66.23
39487;BME280;25173;50.430;18.926;2023-04-19T08:28:43;98262.06;;;10.72;67.18
39487;BME280;25173;50.430;18.926;2023-04-19T08:31:44;98267.22;;;10.53;68.63
39487;BME280;25173;50.430;18.926;2023-04-19T08:34:45;98275.09;;;10.29;70.11
39487;BME280;25173;50.430;18.926;2023-04-19T08:37:47;98264.94;;;10.04;71.05
39487;BME280;25173;50.430;18.926;2023-04-19T08:40:51;98266.28;;;9.97;71.63
39487;BME280;25173;50.430;18.926;2023-04-19T08:43:53;98270.34;;;9.94;71.82
39487;BME280;25173;50.430;18.926;2023-04-19T08:47:00;98269.47;;;9.79;71.96
39487;BME280;25173;50.430;18.926;2023-04-19T08:50:03;98277.03;;;9.71;72.27
39487;BME280;25173;50.430;18.926;2023-04-19T08:53:05;98271.34;;;9.73;72.78
39487;BME280;25173;50.430;18.926;2023-04-19T08:56:07;98276.53;;;9.80;72.58
39487;BME280;25173;50.430;18.926;2023-04-19T08:59:08;98274.69;;;9.85;72.82
39487;BME280;25173;50.430;18.926;2023-04-19T09:02:08;98270.63;;;9.98;73.03
39487;BME280;25173;50.430;18.926;2023-04-19T09:05:11;98262.22;;;10.09;72.76
39487;BME280;25173;50.430;18.926;2023-04-19T09:08:23;98268.22;;;10.17;72.72
39487;BME280;25173;50.430;18.926;2023-04-19T09:11:35;98269.88;;;10.18;72.42
39487;BME280;25173;50.430;18.926;2023-04-19T09:14:43;98264.19;;;10.24;72.09
39487;BME280;25173;50.430;18.926;2023-04-19T09:18:03;98260.13;;;10.42;73.04
39487;BME280;25173;50.430;18.926;2023-04-19T09:21:05;98255.53;;;10.78;72.37
39487;BME280;25173;50.430;18.926;2023-04-19T09:24:06;98256.88;;;11.01;71.14
39487;BME280;25173;50.430;18.926;2023-04-19T09:27:14;98256.00;;;11.20;71.11
39487;BME280;25173;50.430;18.926;2023-04-19T09:30:25;98256.03;;;11.25;69.55
39487;BME280;25173;50.430;18.926;2023-04-19T09:36:33;98269.41;;;11.07;69.43
39487;BME280;25173;50.430;18.926;2023-04-19T09:39:33;98268.03;;;10.84;69.39
39487;BME280;25173;50.430;18.926;2023-04-19T09:42:45;98259.06;;;10.68;69.60
39487;BME280;25173;50.430;18.926;2023-04-19T09:45:46;98261.25;;;10.71;69.84
39487;BME280;25173;50.430;18.926;2023-04-19T09:48:46;98265.59;;;10.72;69.67
39487;BME280;25173;50.430;18.926;2023-04-19T09:51:48;98269.13;;;10.68;69.39
39487;BME280;25173;50.430;18.926;2023-04-19T09:54:49;98269.66;;;10.60;69.42
39487;BME280;25173;50.430;18.926;2023-04-19T09:57:53;98278.66;;;10.60;69.36
39487;BME280;25173;50.430;18.926;2023-04-19T10:00:55;98262.88;;;10.52;69.05
39487;BME280;25173;50.430;18.926;2023-04-19T10:03:56;98276.75;;;10.40;69.31
39487;BME280;25173;50.430;18.926;2023-04-19T10:06:57;98280.50;;;10.24;69.58
39487;BME280;25173;50.430;18.926;2023-04-19T10:09:58;98277.78;;;10.19;69.87
39487;BME280;25173;50.430;18.926;2023-04-19T10:13:05;98277.53;;;10.21;70.20
39487;BME280;25173;50.430;18.926;2023-04-19T10:16:06;98275.06;;;10.24;70.11
39487;BME280;25173;50.430;18.926;2023-04-19T10:19:09;98278.34;;;10.21;70.07
39487;BME280;25173;50.430;18.926;2023-04-19T10:22:11;98281.06;;;10.21;69.98
39487;BME280;25173;50.430;18.926;2023-04-19T10:25:15;98270.22;;;10.36;70.42
39487;BME280;25173;50.430;18.926;2023-04-19T10:28:16;98268.84;;;10.54;69.85
39487;BME280;25173;50.430;18.926;2023-04-19T10:31:19;98272.97;;;10.67;69.39
39487;BME280;25173;50.430;18.926;2023-04-19T10:34:38;98275.69;;;10.72;69.14
39487;BME280;25173;50.430;18.926;2023-04-19T10:37:39;98271.34;;;10.66;69.19
39487;BME280;25173;50.430;18.926;2023-04-19T10:44:09;98266.13;;;10.84;69.30
39487;BME280;25173;50.430;18.926;2023-04-19T10:47:10;98268.56;;;11.06;69.29
39487;BME280;25173;50.430;18.926;2023-04-19T10:50:11;98270.72;;;11.19;68.90
39487;BME280;25173;50.430;18.926;2023-04-19T10:57:02;98268.25;;;11.48;68.35
39487;BME280;25173;50.430;18.926;2023-04-19T11:00:20;98264.72;;;11.38;67.52
39487;BME280;25173;50.430;18.926;2023-04-19T11:09:51;98276.22;;;10.59;69.01
39487;BME280;25173;50.430;18.926;2023-04-19T11:12:52;98273.50;;;10.64;69.39
39487;BME280;25173;50.430;18.926;2023-04-19T11:15:57;98285.50;;;10.78;69.25
39487;BME280;25173;50.430;18.926;2023-04-19T11:18:58;98283.31;;;10.80;69.04
39487;BME280;25173;50.430;18.926;2023-04-19T11:21:58;98282.75;;;10.83;68.83
39487;BME280;25173;50.430;18.926;2023-04-19T11:25:10;98276.78;;;10.86;68.91
39487;BME280;25173;50.430;18.926;2023-04-19T11:28:14;98288.75;;;11.00;68.76
39487;BME280;25173;50.430;18.926;2023-04-19T11:31:17;98281.41;;;11.11;68.86
39487;BME280;25173;50.430;18.926;2023-04-19T11:34:21;98277.00;;;11.30;68.84
39487;BME280;25173;50.430;18.926;2023-04-19T11:37:22;98281.31;;;11.46;68.40
39487;BME280;25173;50.430;18.926;2023-04-19T11:40:24;98281.53;;;11.65;68.02
39487;BME280;25173;50.430;18.926;2023-04-19T11:43:34;98278.00;;;11.59;67.56
39487;BME280;25173;50.430;18.926;2023-04-19T11:46:35;98278.31;;;11.53;67.19
39487;BME280;25173;50.430;18.926;2023-04-19T11:49:35;98295.22;;;11.45;67.23
39487;BME280;25173;50.430;18.926;2023-04-19T11:52:36;98291.72;;;11.24;66.97
39487;BME280;25173;50.430;18.926;2023-04-19T11:55:37;98298.84;;;11.10;67.59
39487;BME280;25173;50.430;18.926;2023-04-19T11:58:41;98287.13;;;11.09;67.94
39487;BME280;25173;50.430;18.926;2023-04-19T12:01:44;98290.94;;;11.03;68.00
39487;BME280;25173;50.430;18.926;2023-04-19T12:04:44;98291.50;;;10.95;68.04
39487;BME280;25173;50.430;18.926;2023-04-19T12:08:05;98291.47;;;10.85;68.30
39487;BME280;25173;50.430;18.926;2023-04-19T12:11:07;98285.50;;;10.88;68.69
39487;BME280;25173;50.430;18.926;2023-04-19T12:17:11;98284.66;;;10.82;68.45
39487;BME280;25173;50.430;18.926;2023-04-19T12:20:27;98280.06;;;10.73;68.19
39487;BME280;25173;50.430;18.926;2023-04-19T12:23:28;98286.59;;;10.67;68.60
39487;BME280;25173;50.430;18.926;2023-04-19T12:26:29;98290.91;;;10.68;68.82
39487;BME280;25173;50.430;18.926;2023-04-19T12:29:30;98290.91;;;10.68;68.87
39487;BME280;25173;50.430;18.926;2023-04-19T12:32:31;98285.47;;;10.68;68.88
39487;BME280;25173;50.430;18.926;2023-04-19T12:35:31;98296.94;;;10.65;69.03
39487;BME280;25173;50.430;18.926;2023-04-19T12:38:33;98300.72;;;10.64;69.16
39487;BME280;25173;50.430;18.926;2023-04-19T12:41:34;98288.75;;;10.75;69.16
39487;BME280;25173;50.430;18.926;2023-04-19T12:44:34;98293.38;;;10.84;69.07
39487;BME280;25173;50.430;18.926;2023-04-19T12:47:35;98289.31;;;10.87;68.74
39487;BME280;25173;50.430;18.926;2023-04-19T12:50:35;98288.22;;;10.88;68.63
39487;BME280;25173;50.430;18.926;2023-04-19T12:53:36;98286.59;;;10.87;68.56
39487;BME280;25173;50.430;18.926;2023-04-19T12:56:36;98289.28;;;10.82;68.53
39487;BME280;25173;50.430;18.926;2023-04-19T12:59:37;98280.03;;;10.78;68.88
39487;BME280;25173;50.430;18.926;2023-04-19T13:02:38;98285.75;;;10.86;68.93
39487;BME280;25173;50.430;18.926;2023-04-19T13:05:38;98284.13;;;10.90;68.73
39487;BME280;25173;50.430;18.926;2023-04-19T13:08:39;98285.75;;;10.86;68.70
39487;BME280;25173;50.430;18.926;2023-04-19T13:11:41;98287.38;;;10.82;68.70
39487;BME280;25173;50.430;18.926;2023-04-19T13:14:41;98291.75;;;10.83;68.90
39487;BME280;25173;50.430;18.926;2023-04-19T13:17:42;98293.38;;;10.84;69.08
39487;BME280;25173;50.430;18.926;2023-04-19T13:20:43;98296.13;;;10.79;69.16
39487;BME280;25173;50.430;18.926;2023-04-19T13:23:44;98287.94;;;10.79;69.46
39487;BME280;25173;50.430;18.926;2023-04-19T13:26:45;98294.19;;;10.70;69.70
39487;BME280;25173;50.430;18.926;2023-04-19T13:29:45;98287.41;;;10.72;69.93
39487;BME280;25173;50.430;18.926;2023-04-19T13:32:46;98292.03;;;10.72;70.01
39487;BME280;25173;50.430;18.926;2023-04-19T13:35:47;98293.38;;;10.54;70.19
39487;BME280;25173;50.430;18.926;2023-04-19T13:38:48;98295.78;;;10.35;70.71
39487;BME280;25173;50.430;18.926;2023-04-19T13:41:48;98293.56;;;10.17;71.07
39487;BME280;25173;50.430;18.926;2023-04-19T13:44:49;98294.59;;;10.06;71.42
39487;BME280;25173;50.430;18.926;2023-04-19T13:47:49;98295.69;;;10.00;71.70
39487;BME280;25173;50.430;18.926;2023-04-19T13:50:50;98296.72;;;9.94;71.89
39487;BME280;25173;50.430;18.926;2023-04-19T13:53:52;98294.81;;;9.89;72.17
39487;BME280;25173;50.430;18.926;2023-04-19T13:56:52;98297.22;;;9.81;72.47
39487;BME280;25173;50.430;18.926;2023-04-19T13:59:53;98298.28;;;9.80;72.48
39487;BME280;25173;50.430;18.926;2023-04-19T14:02:54;98297.72;;;9.72;72.76
39487;BME280;25173;50.430;18.926;2023-04-19T14:05:56;98298.28;;;9.69;72.93
39487;BME280;25173;50.430;18.926;2023-04-19T14:08:57;98298.22;;;9.64;73.20
39487;BME280;25173;50.430;18.926;2023-04-19T14:11:57;98301.25;;;9.68;73.31
39487;BME280;25173;50.430;18.926;2023-04-19T14:14:58;98296.59;;;9.63;73.22
39487;BME280;25173;50.430;18.926;2023-04-19T14:17:59;98295.22;;;9.56;73.49
39487;BME280;25173;50.430;18.926;2023-04-19T14:21:00;98293.81;;;9.48;73.75
39487;BME280;25173;50.430;18.926;2023-04-19T14:24:00;98295.97;;;9.46;73.88
39487;BME280;25173;50.430;18.926;2023-04-19T14:27:01;98302.47;;;9.45;74.00
39487;BME280;25173;50.430;18.926;2023-04-19T14:30:02;98298.16;;;9.49;74.09
39487;BME280;25173;50.430;18.926;2023-04-19T14:33:02;98305.53;;;9.59;74.03
39487;BME280;25173;50.430;18.926;2023-04-19T14:36:03;98299.03;;;9.60;73.63
39487;BME280;25173;50.430;18.926;2023-04-19T14:39:04;98300.09;;;9.54;73.66
39487;BME280;25173;50.430;18.926;2023-04-19T14:42:05;98295.72;;;9.48;73.70
39487;BME280;25173;50.430;18.926;2023-04-19T14:45:06;98289.47;;;9.47;73.76
39487;BME280;25173;50.430;18.926;2023-04-19T14:48:07;98290.56;;;9.51;74.10
39487;BME280;25173;50.430;18.926;2023-04-19T14:51:08;98285.69;;;9.58;73.92
39487;BME280;25173;50.430;18.926;2023-04-19T14:54:08;98296.56;;;9.58;73.63
39487;BME280;25173;50.430;18.926;2023-04-19T14:57:09;98292.75;;;9.54;73.77
39487;BME280;25173;50.430;18.926;2023-04-19T15:00:10;98292.72;;;9.49;73.83
39487;BME280;25173;50.430;18.926;2023-04-19T15:03:11;98295.97;;;9.46;74.11
39487;BME280;25173;50.430;18.926;2023-04-19T15:06:12;98306.03;;;9.46;74.07
39487;BME280;25173;50.430;18.926;2023-04-19T15:09:13;98296.78;;;9.47;74.27
39487;BME280;25173;50.430;18.926;2023-04-19T15:12:13;98297.63;;;9.47;74.28
39487;BME280;25173;50.430;18.926;2023-04-19T15:15:14;98301.44;;;9.51;74.38
39487;BME280;25173;50.430;18.926;2023-04-19T15:18:15;98293.81;;;9.48;74.38
39487;BME280;25173;50.430;18.926;2023-04-19T15:21:20;98297.38;;;9.54;74.53
39487;BME280;25173;50.430;18.926;2023-04-19T15:24:21;98292.19;;;9.52;74.48
39487;BME280;25173;50.430;18.926;2023-04-19T15:27:21;98296.53;;;9.48;74.70
39487;BME280;25173;50.430;18.926;2023-04-19T15:30:22;98304.72;;;9.53;74.60
39487;BME280;25173;50.430;18.926;2023-04-19T15:33:22;98300.94;;;9.59;74.57
39487;BME280;25173;50.430;18.926;2023-04-19T15:36:23;98306.13;;;9.66;74.51
39487;BME280;25173;50.430;18.926;2023-04-19T15:39:24;98312.38;;;9.66;74.38
39487;BME280;25173;50.430;18.926;2023-04-19T15:42:25;98315.09;;;9.61;74.49
39487;BME280;25173;50.430;18.926;2023-04-19T15:45:25;98315.03;;;9.51;74.84
39487;BME280;25173;50.430;18.926;2023-04-19T15:48:31;98314.75;;;9.48;74.90
39487;BME280;25173;50.430;18.926;2023-04-19T15:51:32;98321.25;;;9.47;75.30
39487;BME280;25173;50.430;18.926;2023-04-19T15:54:33;98324.22;;;9.45;75.10
39487;BME280;25173;50.430;18.926;2023-04-19T15:57:38;98322.59;;;9.44;75.11
39487;BME280;25173;50.430;18.926;2023-04-19T16:00:38;98328.00;;;9.39;75.28
39487;BME280;25173;50.430;18.926;2023-04-19T16:03:39;98335.34;;;9.39;75.43
39487;BME280;25173;50.430;18.926;2023-04-19T16:06:40;98332.63;;;9.39;75.35
39487;BME280;25173;50.430;18.926;2023-04-19T16:09:40;98334.53;;;9.43;75.23
39487;BME280;25173;50.430;18.926;2023-04-19T16:12:41;98333.22;;;9.46;75.37
39487;BME280;25173;50.430;18.926;2023-04-19T16:15:46;98329.09;;;9.43;75.35